Wednesday, May 24, 2017, 4:20 AM EDT
Back to Local

KCXY, Harrisburg Capital City

Location: New Cumberland, PA, United States Lat: 40.217
Local Time: 4:20 AM EDT ( 8:20 GMT) Lon: -76.85
Time Zone: US/Eastern Elev: 347 ft

Show me the last for .
Show Decoded

2017-05-24 03:56 METAR KCXY 240756Z AUTO 00000KT 4SM -RA BR OVC110 14/13 A2972 RMK AO2 SLP066
                 P0000 T01440128 =
2017-05-24 02:56 METAR KCXY 240656Z AUTO 00000KT 6SM -RA BR OVC100 15/13 A2973 RMK AO2 SLP066
                 P0000 T01500128 =
2017-05-24 01:56 METAR KCXY 240556Z AUTO 13004KT 8SM -RA OVC110 16/12 A2975 RMK AO2 RAB07 SLP074
                 P0000 60000 T01560122 10178 20150 56015 =
2017-05-24 00:56 METAR KCXY 240456Z AUTO 00000KT 10SM CLR 16/11 A2976 RMK AO2 RAE05 SLP076 P0000
                 T01610111 401940106 =
2017-05-23 23:56 METAR KCXY 240356Z AUTO 00000KT 10SM -RA FEW027 OVC034 16/11 A2977 RMK AO2 RAB55
                 SLP081 P0000 T01560111 =
2017-05-23 22:56 METAR KCXY 240256Z AUTO 00000KT 10SM OVC035 16/11 A2979 RMK AO2 SLP089 60000
                 T01610106 58007 =
2017-05-23 21:56 METAR KCXY 240156Z AUTO 12003KT 10SM CLR 17/11 A2981 RMK AO2 RAB13E14 SLP096
                 P0000 T01670106 =
2017-05-23 20:56 METAR KCXY 240056Z 12003KT 10SM BKN032 17/10 A2982 RMK AO2 SLP097 T01720100 =
2017-05-23 19:56 METAR KCXY 232356Z 12003KT 10SM CLR 18/09 A2981 RMK AO2 SLP096 T01780094 10194
                 20178 58012 =
2017-05-23 18:56 METAR KCXY 232256Z 16003KT 10SM CLR 18/09 A2982 RMK AO2 SLP099 T01830094 =
2017-05-23 17:56 METAR KCXY 232156Z 11004KT 10SM CLR 19/09 A2984 RMK AO2 SLP106 T01890089 =
2017-05-23 16:56 METAR KCXY 232056Z 13005KT 10SM CLR 19/08 A2985 RMK AO2 SLP108 T01890083 58022 =
2017-05-23 15:56 METAR KCXY 231956Z 12007KT 10SM CLR 19/08 A2987 RMK AO2 SLP116 T01940083 =
2017-05-23 14:56 METAR KCXY 231856Z 00000KT 10SM CLR 19/08 A2990 RMK AO2 SLP126 T01940078 =
2017-05-23 13:56 METAR KCXY 231756Z VRB03KT 10SM CLR 19/08 A2991 RMK AO2 SLP130 T01890078 10189
                 20133 56017 =
2017-05-23 12:56 METAR KCXY 231656Z 10005KT 10SM CLR 18/07 A2993 RMK AO2 SLP136 T01830072 =
2017-05-23 11:56 METAR KCXY 231556Z 07005KT 10SM CLR 18/08 A2995 RMK AO2 SLP140 T01830083 =
2017-05-23 10:56 METAR KCXY 231456Z 10003KT 10SM CLR 17/10 A2996 RMK AO2 SLP147 T01720100 58002 =
2017-05-23 09:56 METAR KCXY 231356Z 13003KT 10SM CLR 16/11 A2999 RMK AO2 SLP154 T01610106 =
2017-05-23 08:56 METAR KCXY 231256Z 00000KT 10SM CLR 15/12 A2998 RMK AO2 SLP152 T01500117 =
2017-05-23 07:56 METAR KCXY 231156Z 25003KT 10SM CLR 13/11 A2997 RMK AO2 SLP149 T01330111 10133
                 20106 53003 =
2017-05-23 06:56 METAR KCXY 231056Z AUTO 00000KT 10SM CLR 12/10 A2997 RMK AO2 SLP148 T01220100 =
2017-05-23 05:56 METAR KCXY 230956Z AUTO 00000KT 10SM CLR 11/09 A2996 RMK AO2 SLP147 T01110094 =
2017-05-23 04:56 METAR KCXY 230856Z AUTO 29004KT 10SM CLR 12/09 A2996 RMK AO2 SLP146 T01170094
                 56003 =

Support USWX by starting your Amazon purchase here.